createdAt,value
2023-05-14T00:00:58.433Z,100826.19
2023-05-14T00:02:00.895Z,100820.34
2023-05-14T00:03:02.583Z,100826.06
2023-05-14T00:04:05.567Z,100815.94
2023-05-14T00:05:08.028Z,100817.97
2023-05-14T00:06:10.839Z,100817.97
2023-05-14T00:07:12.442Z,100820.44
2023-05-14T00:08:14.920Z,100818.56
2023-05-14T00:09:17.392Z,100813.19
2023-05-14T00:10:20.668Z,100817.66
2023-05-14T00:11:23.301Z,100816.09
2023-05-14T00:12:24.923Z,100822.28
2023-05-14T00:13:27.536Z,100813.97
2023-05-14T00:14:29.253Z,100819.94
2023-05-14T00:15:33.616Z,100813.53
2023-05-14T00:16:37.166Z,100814.25
2023-05-14T00:17:39.807Z,100809.66
2023-05-14T00:18:41.570Z,100814.75
2023-05-14T00:19:44.179Z,100807.22
2023-05-14T00:20:45.801Z,100806.09
2023-05-14T00:21:48.307Z,100801.97
2023-05-14T00:22:49.822Z,100802.31
2023-05-14T00:23:52.237Z,100805.06
2023-05-14T00:24:53.775Z,100796.38
2023-05-14T00:25:56.332Z,100800.97
2023-05-14T00:26:57.830Z,100796.38
2023-05-14T00:28:00.356Z,100800.16
2023-05-14T00:29:01.872Z,100786.91
2023-05-14T00:30:06.346Z,100794.78
2023-05-14T00:31:07.911Z,100794.34
2023-05-14T00:32:11.820Z,100799.06
2023-05-14T00:33:13.433Z,100803.22
2023-05-14T00:34:15.897Z,100799.72
2023-05-14T00:35:17.431Z,100804.19
2023-05-14T00:36:19.906Z,100797.97
2023-05-14T00:37:21.418Z,100800.59
2023-05-14T00:38:27.560Z,100795.41
2023-05-14T00:39:29.032Z,100799.19
2023-05-14T00:40:31.663Z,100802.84
2023-05-14T00:41:33.317Z,100800.63
2023-05-14T00:42:35.753Z,100801.59
2023-05-14T00:43:38.164Z,100799.53
2023-05-14T00:44:39.715Z,100808.16
2023-05-14T00:45:42.340Z,100798.41
2023-05-14T00:46:44.018Z,100800.34
2023-05-14T00:47:48.530Z,100798.84
2023-05-14T00:48:50.148Z,100796.88
2023-05-14T00:49:52.717Z,100801.44
2023-05-14T00:50:54.669Z,100794.88
2023-05-14T00:51:59.025Z,100797.19
2023-05-14T00:53:00.682Z,100803.09
2023-05-14T00:54:03.589Z,100794.84
2023-05-14T00:55:06.610Z,100797.31
2023-05-14T00:56:09.574Z,100797.94
2023-05-14T00:57:11.098Z,100793.94
2023-05-14T00:58:14.640Z,100796.38
2023-05-14T00:59:16.261Z,100799.28
2023-05-14T01:00:19.225Z,100801.88
2023-05-14T01:01:21.049Z,100799.81
2023-05-14T01:02:24.003Z,100797.72
2023-05-14T01:03:27.204Z,100801.34
2023-05-14T01:04:30.301Z,100802.34
2023-05-14T01:05:39.523Z,100805.03
2023-05-14T01:06:52.231Z,100798.63
2023-05-14T01:08:02.133Z,100793.13
2023-05-14T01:09:14.651Z,100794.94
2023-05-14T01:10:23.770Z,100803.81
2023-05-14T01:11:29.967Z,100793.41
2023-05-14T01:12:39.442Z,100796.41
2023-05-14T01:13:53.737Z,100807.53
2023-05-14T01:15:03.158Z,100803.47
2023-05-14T01:16:05.937Z,100798.13
2023-05-14T01:17:12.016Z,100803.22
2023-05-14T01:18:16.836Z,100799.44
2023-05-14T01:19:31.257Z,100798.47
2023-05-14T01:20:32.783Z,100806.63
2023-05-14T01:21:38.459Z,100801.19
2023-05-14T01:22:40.084Z,100800.53
2023-05-14T01:23:42.520Z,100805.78
2023-05-14T01:24:44.081Z,100803.78
2023-05-14T01:25:46.611Z,100795.06
2023-05-14T01:26:48.089Z,100798.91
2023-05-14T01:27:58.605Z,100800.78
2023-05-14T01:29:04.035Z,100805.41
2023-05-14T01:30:14.610Z,100807.47
2023-05-14T01:31:20.334Z,100805.03
2023-05-14T01:32:24.675Z,100801.72
2023-05-14T01:33:29.404Z,100801.47
2023-05-14T01:34:32.608Z,100797.69
2023-05-14T01:35:34.257Z,100799.41
2023-05-14T01:36:38.664Z,100795.88
2023-05-14T01:37:42.060Z,100793.25
2023-05-14T01:38:47.159Z,100795.38
2023-05-14T01:39:50.821Z,100793.47
2023-05-14T01:40:54.452Z,100794.41
2023-05-14T01:41:56.448Z,100782.41
2023-05-14T01:42:59.315Z,100780.81
2023-05-14T01:44:01.017Z,100787.28
2023-05-14T01:45:04.184Z,100788.88
2023-05-14T01:46:05.688Z,100791.34
2023-05-14T01:47:08.174Z,100782.56
2023-05-14T01:48:09.778Z,100781.34
2023-05-14T01:49:12.259Z,100777.88
2023-05-14T01:50:13.902Z,100787.06
2023-05-14T01:51:16.476Z,100781.63
2023-05-14T01:52:21.276Z,100786.00
2023-05-14T01:53:24.025Z,100775.06
2023-05-14T01:54:25.512Z,100784.66
2023-05-14T01:55:27.975Z,100782.00
2023-05-14T01:56:29.532Z,100783.44
2023-05-14T01:57:32.063Z,100781.44
2023-05-14T01:58:33.600Z,100788.22
2023-05-14T01:59:36.079Z,100784.97
2023-05-14T02:00:38.281Z,100784.94
2023-05-14T02:01:40.788Z,100789.66
2023-05-14T02:02:42.558Z,100781.19
2023-05-14T02:03:45.075Z,100793.03
2023-05-14T02:04:46.633Z,100784.59
2023-05-14T02:05:49.067Z,100791.47
2023-05-14T02:06:51.536Z,100785.66
2023-05-14T02:07:54.376Z,100781.19
2023-05-14T02:08:56.816Z,100784.56
2023-05-14T02:09:58.480Z,100781.69
2023-05-14T02:11:00.924Z,100782.59
2023-05-14T02:12:02.453Z,100775.91
2023-05-14T02:13:04.908Z,100778.44
2023-05-14T02:14:06.557Z,100781.06
2023-05-14T02:15:10.984Z,100782.72
2023-05-14T02:16:12.923Z,100789.09
2023-05-14T02:17:16.543Z,100780.66
2023-05-14T02:18:18.171Z,100777.72
2023-05-14T02:19:20.687Z,100784.78
2023-05-14T02:20:22.415Z,100779.88
2023-05-14T02:21:25.326Z,100787.47
2023-05-14T02:22:27.019Z,100775.91
2023-05-14T02:23:40.410Z,100790.28
2023-05-14T02:24:43.309Z,100778.88
2023-05-14T02:25:45.853Z,100777.19
2023-05-14T02:26:47.724Z,100772.25
2023-05-14T02:27:50.653Z,100772.50
2023-05-14T02:28:52.175Z,100773.78
2023-05-14T02:29:56.487Z,100779.69
2023-05-14T02:30:58.934Z,100781.31
2023-05-14T02:32:01.464Z,100771.47
2023-05-14T02:33:03.092Z,100769.63
2023-05-14T02:34:07.409Z,100759.81
2023-05-14T02:35:09.678Z,100764.25
2023-05-14T02:36:12.220Z,100766.38
2023-05-14T02:37:13.723Z,100769.13
2023-05-14T02:38:16.421Z,100769.72
2023-05-14T02:39:19.253Z,100765.59
2023-05-14T02:40:21.921Z,100764.56
2023-05-14T02:41:23.640Z,100758.69
2023-05-14T02:42:26.103Z,100762.06
2023-05-14T02:43:27.624Z,100765.75
2023-05-14T02:44:31.822Z,100765.97
2023-05-14T02:45:33.371Z,100764.53
2023-05-14T02:46:36.057Z,100767.97
2023-05-14T02:47:38.358Z,100766.47
2023-05-14T02:48:40.917Z,100763.84
2023-05-14T02:49:42.456Z,100767.00
2023-05-14T02:50:44.894Z,100771.56
2023-05-14T02:51:46.390Z,100758.25
2023-05-14T02:52:48.867Z,100767.06
2023-05-14T02:53:50.434Z,100762.59
2023-05-14T02:54:54.169Z,100766.06
2023-05-14T02:55:55.958Z,100756.47
2023-05-14T02:56:58.768Z,100765.16
2023-05-14T02:58:00.201Z,100761.59
2023-05-14T02:59:02.599Z,100761.09
2023-05-14T03:00:05.984Z,100762.81
2023-05-14T03:01:09.385Z,100760.81
2023-05-14T03:02:11.413Z,100764.00
2023-05-14T03:03:14.578Z,100766.81
2023-05-14T03:04:16.414Z,100765.72
2023-05-14T03:05:18.842Z,100762.38
2023-05-14T03:06:20.354Z,100756.75
2023-05-14T03:07:22.806Z,100759.72
2023-05-14T03:08:24.439Z,100753.88
2023-05-14T03:09:26.850Z,100752.97
2023-05-14T03:10:29.662Z,100760.13
2023-05-14T03:11:32.168Z,100752.16
2023-05-14T03:12:33.688Z,100757.00
2023-05-14T03:13:36.135Z,100756.84
2023-05-14T03:14:37.674Z,100757.50
2023-05-14T03:15:40.064Z,100754.00
2023-05-14T03:16:42.295Z,100757.72
2023-05-14T03:17:45.032Z,100759.66
2023-05-14T03:18:46.614Z,100751.66
2023-05-14T03:19:49.087Z,100758.25
2023-05-14T03:20:50.600Z,100758.91
2023-05-14T03:21:53.122Z,100750.34
2023-05-14T03:22:56.049Z,100759.03
2023-05-14T03:23:58.556Z,100759.03
2023-05-14T03:25:00.064Z,100760.75
2023-05-14T03:26:04.899Z,100758.94
2023-05-14T03:27:06.742Z,100754.97
2023-05-14T03:28:09.729Z,100746.41
2023-05-14T03:29:11.228Z,100752.06
2023-05-14T03:30:14.094Z,100745.28
2023-05-14T03:31:15.712Z,100749.47
2023-05-14T03:32:18.736Z,100744.00
2023-05-14T03:33:21.147Z,100751.19
2023-05-14T03:34:23.708Z,100736.50
2023-05-14T03:35:25.452Z,100741.66
2023-05-14T03:36:28.069Z,100744.84
2023-05-14T03:37:29.622Z,100747.53
2023-05-14T03:38:32.132Z,100747.34
2023-05-14T03:39:33.828Z,100741.34
2023-05-14T03:40:36.358Z,100738.78
2023-05-14T03:41:39.299Z,100742.47
2023-05-14T03:42:41.720Z,100745.75
2023-05-14T03:43:43.232Z,100742.84
2023-05-14T03:44:46.025Z,100745.28
2023-05-14T03:45:48.295Z,100743.34
2023-05-14T03:46:50.771Z,100746.63
2023-05-14T03:47:52.391Z,100742.97
2023-05-14T03:48:54.886Z,100743.59
2023-05-14T03:49:56.899Z,100745.81
2023-05-14T03:50:59.533Z,100746.03
2023-05-14T03:52:01.199Z,100738.50
2023-05-14T03:53:03.674Z,100737.81
2023-05-14T03:54:05.515Z,100744.63
2023-05-14T03:55:08.668Z,100731.72
2023-05-14T03:56:10.217Z,100735.81
2023-05-14T03:57:14.031Z,100742.44
2023-05-14T03:58:15.837Z,100731.41
2023-05-14T03:59:18.315Z,100742.72
2023-05-14T04:00:20.413Z,100736.09
2023-05-14T04:01:22.916Z,100742.50
2023-05-14T04:02:24.484Z,100745.47
2023-05-14T04:03:27.077Z,100742.13
2023-05-14T04:04:28.712Z,100742.63
2023-05-14T04:05:31.228Z,100736.34
2023-05-14T04:06:33.129Z,100743.53
2023-05-14T04:07:35.594Z,100733.88
2023-05-14T04:08:37.109Z,100741.44
2023-05-14T04:09:39.519Z,100737.75
2023-05-14T04:10:41.158Z,100735.47
2023-05-14T04:11:43.664Z,100740.56
2023-05-14T04:12:46.541Z,100732.53
2023-05-14T04:13:49.017Z,100735.69
2023-05-14T04:14:50.589Z,100738.72
2023-05-14T04:15:53.164Z,100741.47
2023-05-14T04:16:54.717Z,100740.34
2023-05-14T04:17:57.245Z,100735.47
2023-05-14T04:19:00.441Z,100735.16
2023-05-14T04:20:03.247Z,100731.28
2023-05-14T04:21:05.286Z,100737.00
2023-05-14T04:22:07.918Z,100740.03
2023-05-14T04:23:09.373Z,100732.41
2023-05-14T04:24:11.796Z,100735.06
2023-05-14T04:25:13.297Z,100736.94
2023-05-14T04:26:15.944Z,100737.59
2023-05-14T04:27:21.099Z,100733.50
2023-05-14T04:28:24.955Z,100737.13
2023-05-14T04:29:26.537Z,100740.28
2023-05-14T04:30:29.593Z,100732.25
2023-05-14T04:31:31.744Z,100735.41
2023-05-14T04:32:34.310Z,100741.06
2023-05-14T04:33:35.918Z,100734.66
2023-05-14T04:34:38.350Z,100729.03
2023-05-14T04:35:39.860Z,100726.94
2023-05-14T04:36:42.379Z,100724.44
2023-05-14T04:37:43.854Z,100721.97
2023-05-14T04:38:46.524Z,100722.53
2023-05-14T04:39:47.990Z,100724.19
2023-05-14T04:40:50.703Z,100723.03
2023-05-14T04:41:52.473Z,100724.00
2023-05-14T04:42:55.048Z,100725.63
2023-05-14T04:44:00.632Z,100731.75
2023-05-14T04:45:05.120Z,100724.22
2023-05-14T04:46:06.857Z,100730.69
2023-05-14T04:47:09.318Z,100732.13
2023-05-14T04:48:10.901Z,100726.44
2023-05-14T04:49:13.423Z,100733.88
2023-05-14T04:50:15.517Z,100733.06
2023-05-14T04:51:18.466Z,100728.91
2023-05-14T04:52:20.039Z,100721.53
2023-05-14T04:53:22.469Z,100725.56
2023-05-14T04:54:24.094Z,100723.41
2023-05-14T04:55:27.276Z,100725.16
2023-05-14T04:56:28.782Z,100729.09
2023-05-14T04:57:31.486Z,100726.66
2023-05-14T04:58:35.092Z,100721.75
2023-05-14T04:59:39.390Z,100722.66
2023-05-14T05:00:41.887Z,100721.31
2023-05-14T05:01:43.599Z,100722.25
2023-05-14T05:02:46.179Z,100720.25
2023-05-14T05:03:47.850Z,100721.19
2023-05-14T05:04:50.328Z,100724.75
2023-05-14T05:05:52.025Z,100722.13
2023-05-14T05:06:54.451Z,100718.06
2023-05-14T05:07:56.107Z,100724.19
2023-05-14T05:09:00.631Z,100722.09
2023-05-14T05:10:04.330Z,100719.13
2023-05-14T05:11:06.807Z,100719.81
2023-05-14T05:12:09.061Z,100720.38
2023-05-14T05:13:11.604Z,100720.53
2023-05-14T05:14:13.187Z,100721.94
2023-05-14T05:15:17.106Z,100724.25
2023-05-14T05:16:18.738Z,100715.88
2023-05-14T05:17:21.348Z,100721.81
2023-05-14T05:18:22.947Z,100720.66
2023-05-14T05:19:35.595Z,100714.91
2023-05-14T05:20:37.634Z,100724.47
2023-05-14T05:21:40.824Z,100722.56
2023-05-14T05:22:42.422Z,100718.66
2023-05-14T05:23:44.851Z,100727.81
2023-05-14T05:24:48.016Z,100721.66
2023-05-14T05:25:51.686Z,100719.91
2023-05-14T05:26:53.983Z,100723.13
2023-05-14T05:27:56.542Z,100719.31
2023-05-14T05:28:58.035Z,100720.34
2023-05-14T05:30:02.116Z,100726.06
2023-05-14T05:31:06.492Z,100719.63
2023-05-14T05:32:08.185Z,100712.56
2023-05-14T05:33:11.015Z,100720.25
2023-05-14T05:34:12.711Z,100713.94
2023-05-14T05:35:15.171Z,100721.69
2023-05-14T05:36:16.698Z,100720.19
2023-05-14T05:37:19.131Z,100724.81
2023-05-14T05:38:20.810Z,100730.50
2023-05-14T05:39:23.383Z,100725.03
2023-05-14T05:40:25.028Z,100727.16
2023-05-14T05:41:27.768Z,100722.50
2023-05-14T05:42:29.253Z,100719.09
2023-05-14T05:43:33.493Z,100721.59
2023-05-14T05:44:35.014Z,100723.50
2023-05-14T05:45:37.517Z,100727.94
2023-05-14T05:46:40.454Z,100725.72
2023-05-14T05:47:42.972Z,100727.69
2023-05-14T05:48:45.589Z,100723.78
2023-05-14T05:49:47.046Z,100718.00
2023-05-14T05:50:50.440Z,100725.78
2023-05-14T05:51:51.946Z,100718.72
2023-05-14T05:52:54.414Z,100721.47
2023-05-14T05:53:56.109Z,100722.53
2023-05-14T05:54:58.546Z,100722.97
2023-05-14T05:56:01.015Z,100725.94
2023-05-14T05:57:02.520Z,100727.38
2023-05-14T05:58:04.985Z,100724.69
2023-05-14T05:59:06.480Z,100728.13
2023-05-14T06:00:13.748Z,100716.97
2023-05-14T06:01:15.211Z,100730.50
2023-05-14T06:02:20.041Z,100722.78
2023-05-14T06:03:22.366Z,100725.16
2023-05-14T06:04:24.886Z,100718.22
2023-05-14T06:05:26.539Z,100721.66
2023-05-14T06:06:29.601Z,100726.16
2023-05-14T06:07:31.158Z,100728.69
2023-05-14T06:08:33.686Z,100728.00
2023-05-14T06:09:35.293Z,100726.09
2023-05-14T06:10:40.792Z,100720.06
2023-05-14T06:11:42.306Z,100723.75
2023-05-14T06:12:44.770Z,100724.19
2023-05-14T06:13:46.292Z,100725.75
2023-05-14T06:14:48.942Z,100724.13
2023-05-14T06:15:50.413Z,100725.00
2023-05-14T06:16:52.994Z,100719.63
2023-05-14T06:17:55.930Z,100720.25
2023-05-14T06:18:59.154Z,100719.25
2023-05-14T06:20:00.685Z,100720.44
2023-05-14T06:21:03.130Z,100724.66
2023-05-14T06:22:05.098Z,100723.19
2023-05-14T06:23:07.867Z,100713.59
2023-05-14T06:24:09.872Z,100719.03
2023-05-14T06:25:12.827Z,100710.41
2023-05-14T06:26:14.381Z,100714.38
2023-05-14T06:27:16.810Z,100722.44
2023-05-14T06:28:18.345Z,100715.03
2023-05-14T06:29:20.763Z,100712.50
2023-05-14T06:30:22.542Z,100707.09
2023-05-14T06:31:25.323Z,100710.75
2023-05-14T06:32:26.842Z,100705.44
2023-05-14T06:33:31.234Z,100713.59
2023-05-14T06:34:33.168Z,100716.66
2023-05-14T06:35:35.766Z,100711.28
2023-05-14T06:36:38.375Z,100717.88
2023-05-14T06:37:39.859Z,100716.44
2023-05-14T06:38:42.281Z,100718.03
2023-05-14T06:39:49.842Z,100705.59
2023-05-14T06:40:52.959Z,100710.31
2023-05-14T06:41:54.420Z,100702.34
2023-05-14T06:42:56.850Z,100704.69
2023-05-14T06:43:58.351Z,100703.84
2023-05-14T06:45:00.818Z,100699.94
2023-05-14T06:46:02.459Z,100701.78
2023-05-14T06:47:08.496Z,100698.38
2023-05-14T06:48:10.262Z,100692.94
2023-05-14T06:49:14.302Z,100696.22
2023-05-14T06:50:15.886Z,100690.81
2023-05-14T06:51:18.342Z,100687.78
2023-05-14T06:52:19.871Z,100690.44
2023-05-14T06:53:22.383Z,100691.47
2023-05-14T06:54:23.874Z,100689.50
2023-05-14T06:55:26.318Z,100686.13
2023-05-14T06:56:28.127Z,100684.41
2023-05-14T06:57:30.584Z,100684.44
2023-05-14T06:58:32.112Z,100687.69
2023-05-14T06:59:34.550Z,100686.38
2023-05-14T07:00:36.049Z,100682.63
2023-05-14T07:01:38.561Z,100685.94
2023-05-14T07:02:40.406Z,100680.31
2023-05-14T07:03:42.885Z,100679.91
2023-05-14T07:04:46.161Z,100683.75
2023-05-14T07:05:48.891Z,100676.63
2023-05-14T07:06:50.416Z,100681.38
2023-05-14T07:07:52.891Z,100676.50
2023-05-14T07:08:54.434Z,100683.06
2023-05-14T07:09:56.851Z,100679.13
2023-05-14T07:10:58.559Z,100679.69
2023-05-14T07:12:00.952Z,100680.97
2023-05-14T07:13:03.447Z,100682.06
2023-05-14T07:14:05.914Z,100670.16
2023-05-14T07:15:08.860Z,100672.66
2023-05-14T07:16:11.272Z,100671.06
2023-05-14T07:17:12.896Z,100670.28
2023-05-14T07:18:15.449Z,100673.16
2023-05-14T07:19:17.172Z,100673.84
2023-05-14T07:20:22.757Z,100672.84
2023-05-14T07:21:26.092Z,100672.69
2023-05-14T07:22:27.891Z,100666.44
2023-05-14T07:23:30.330Z,100664.34
2023-05-14T07:24:31.853Z,100667.91
2023-05-14T07:25:34.382Z,100663.84
2023-05-14T07:26:36.065Z,100660.63
2023-05-14T07:27:38.593Z,100657.56
2023-05-14T07:28:40.112Z,100666.03
2023-05-14T07:29:42.595Z,100666.13
2023-05-14T07:30:44.097Z,100666.34
2023-05-14T07:31:46.553Z,100658.75
2023-05-14T07:32:48.144Z,100661.88
2023-05-14T07:33:50.819Z,100660.22
2023-05-14T07:34:52.430Z,100665.28
2023-05-14T07:35:56.264Z,100665.19
2023-05-14T07:36:57.817Z,100658.97
2023-05-14T07:38:00.326Z,100659.91
2023-05-14T07:39:02.913Z,100655.69
2023-05-14T07:40:05.314Z,100658.63
2023-05-14T07:41:07.842Z,100652.22
2023-05-14T07:42:09.317Z,100653.03
2023-05-14T07:43:11.980Z,100654.03
2023-05-14T07:44:13.547Z,100654.13
2023-05-14T07:45:15.959Z,100654.22
2023-05-14T07:46:17.971Z,100649.75
2023-05-14T07:47:20.511Z,100644.28
2023-05-14T07:48:22.262Z,100644.56
2023-05-14T07:49:24.766Z,100643.00
2023-05-14T07:50:26.668Z,100641.69
2023-05-14T07:51:31.648Z,100645.25
2023-05-14T07:52:33.176Z,100641.19
2023-05-14T07:53:35.601Z,100642.41
2023-05-14T07:54:37.223Z,100642.53
2023-05-14T07:55:40.084Z,100629.25
2023-05-14T07:56:41.620Z,100634.28
2023-05-14T07:57:44.070Z,100628.91
2023-05-14T07:58:45.797Z,100632.06
2023-05-14T07:59:48.787Z,100638.44
2023-05-14T08:00:50.530Z,100638.78
2023-05-14T08:01:53.164Z,100635.53
2023-05-14T08:02:55.528Z,100638.78
2023-05-14T08:03:58.273Z,100638.59
2023-05-14T08:04:59.861Z,100640.22
2023-05-14T08:06:02.344Z,100634.22
2023-05-14T08:07:05.411Z,100626.97
2023-05-14T08:08:07.883Z,100636.78
2023-05-14T08:09:09.695Z,100632.44
2023-05-14T08:10:12.247Z,100627.56
2023-05-14T08:11:13.815Z,100629.78
2023-05-14T08:12:16.588Z,100627.53
2023-05-14T08:13:18.125Z,100626.59
2023-05-14T08:14:21.354Z,100629.03
2023-05-14T08:15:24.564Z,100631.47
2023-05-14T08:16:29.267Z,100617.50
2023-05-14T08:17:30.859Z,100622.88
2023-05-14T08:18:33.433Z,100622.31
2023-05-14T08:19:35.067Z,100624.44
2023-05-14T08:20:37.693Z,100618.88
2023-05-14T08:21:39.225Z,100629.59
2023-05-14T08:22:43.050Z,100622.50
2023-05-14T08:23:44.605Z,100627.34
2023-05-14T08:24:47.042Z,100614.25
2023-05-14T08:25:48.580Z,100622.50
2023-05-14T08:26:51.045Z,100621.16
2023-05-14T08:27:54.105Z,100621.53
2023-05-14T08:28:56.618Z,100617.59
2023-05-14T08:29:58.152Z,100621.66
2023-05-14T08:31:00.643Z,100617.03
2023-05-14T08:32:08.721Z,100625.25
2023-05-14T08:33:22.111Z,100626.09
2023-05-14T08:34:23.621Z,100616.88
2023-05-14T08:35:26.157Z,100617.16
2023-05-14T08:36:27.720Z,100620.13
2023-05-14T08:37:30.164Z,100614.44
2023-05-14T08:38:33.967Z,100613.41
2023-05-14T08:39:35.573Z,100613.34
2023-05-14T08:40:38.160Z,100622.28
2023-05-14T08:41:40.038Z,100616.06
2023-05-14T08:42:44.771Z,100607.16
2023-05-14T08:43:57.981Z,100616.94
2023-05-14T08:45:01.929Z,100613.09
2023-05-14T08:46:06.860Z,100609.69
2023-05-14T08:47:09.007Z,100615.16
2023-05-14T08:48:16.826Z,100607.91
2023-05-14T08:49:29.355Z,100605.31
2023-05-14T08:50:32.042Z,100594.91
2023-05-14T08:51:33.786Z,100607.38
2023-05-14T08:52:36.503Z,100592.88
2023-05-14T08:53:40.408Z,100598.13
2023-05-14T08:54:43.019Z,100596.25
2023-05-14T08:55:46.011Z,100597.47
2023-05-14T08:56:50.510Z,100591.28
2023-05-14T08:57:53.963Z,100591.50
2023-05-14T08:58:56.406Z,100593.66
2023-05-14T08:59:58.515Z,100589.44
2023-05-14T09:01:01.100Z,100586.97
2023-05-14T09:02:06.302Z,100596.09
2023-05-14T09:03:09.541Z,100597.88
2023-05-14T09:04:11.585Z,100593.25
2023-05-14T09:05:15.738Z,100592.47
2023-05-14T09:06:18.334Z,100602.16
2023-05-14T09:07:21.108Z,100594.53
2023-05-14T09:08:22.994Z,100589.22
2023-05-14T09:09:27.478Z,100594.97
2023-05-14T09:10:29.007Z,100589.19
2023-05-14T09:11:31.546Z,100594.34
2023-05-14T09:12:33.995Z,100584.78
2023-05-14T09:13:37.930Z,100580.44
2023-05-14T09:14:40.510Z,100590.41
2023-05-14T09:15:42.060Z,100584.13
2023-05-14T09:16:46.812Z,100580.88
2023-05-14T09:17:48.671Z,100596.19
2023-05-14T09:18:52.320Z,100588.78
2023-05-14T09:19:54.117Z,100578.63
2023-05-14T09:20:56.797Z,100579.53
2023-05-14T09:21:58.962Z,100584.84
2023-05-14T09:23:01.707Z,100588.88
2023-05-14T09:24:04.146Z,100574.56
2023-05-14T09:25:11.903Z,100581.88
2023-05-14T09:26:17.457Z,100581.59
2023-05-14T09:27:21.311Z,100580.09
2023-05-14T09:28:22.872Z,100576.03
2023-05-14T09:29:25.691Z,100588.13
2023-05-14T09:30:27.445Z,100582.50
2023-05-14T09:31:30.869Z,100584.22
2023-05-14T09:32:35.953Z,100585.53
2023-05-14T09:33:38.613Z,100579.44
2023-05-14T09:34:40.728Z,100578.31
2023-05-14T09:35:43.443Z,100579.16
2023-05-14T09:36:45.253Z,100575.72
2023-05-14T09:37:49.483Z,100572.72
2023-05-14T09:38:51.196Z,100568.69
2023-05-14T09:39:53.651Z,100573.06
2023-05-14T09:40:56.831Z,100578.66
2023-05-14T09:41:59.297Z,100580.38
2023-05-14T09:43:01.839Z,100573.97
2023-05-14T09:44:06.110Z,100574.09
2023-05-14T09:45:09.183Z,100568.03
2023-05-14T09:46:11.660Z,100569.78
2023-05-14T09:47:14.975Z,100572.47
2023-05-14T09:48:17.535Z,100566.59
2023-05-14T09:49:19.345Z,100573.94
2023-05-14T09:50:22.497Z,100570.13
2023-05-14T09:51:24.425Z,100564.13
2023-05-14T09:52:27.205Z,100564.72
2023-05-14T09:53:30.843Z,100566.88
2023-05-14T09:54:33.382Z,100559.97
2023-05-14T09:55:37.285Z,100551.16
2023-05-14T09:56:40.265Z,100557.09
2023-05-14T09:57:43.011Z,100554.56
2023-05-14T09:58:44.570Z,100560.72
2023-05-14T09:59:47.267Z,100554.09
2023-05-14T10:00:49.101Z,100545.81
2023-05-14T10:01:52.880Z,100544.19
2023-05-14T10:02:57.782Z,100545.72
2023-05-14T10:03:59.476Z,100544.44
2023-05-14T10:05:04.910Z,100549.63
2023-05-14T10:06:07.259Z,100544.16
2023-05-14T10:07:10.366Z,100545.44
2023-05-14T10:08:19.312Z,100543.97
2023-05-14T10:09:26.264Z,100543.00
2023-05-14T10:10:29.126Z,100539.34
2023-05-14T10:11:34.490Z,100540.19
2023-05-14T10:12:40.482Z,100535.75
2023-05-14T10:13:46.430Z,100536.53
2023-05-14T10:14:49.704Z,100540.25
2023-05-14T10:15:58.581Z,100533.09
2023-05-14T10:17:01.593Z,100533.09
2023-05-14T10:18:08.957Z,100526.94
2023-05-14T10:19:11.510Z,100522.78
2023-05-14T10:20:17.098Z,100527.66
2023-05-14T10:21:20.739Z,100526.72
2023-05-14T10:22:24.824Z,100514.94
2023-05-14T10:23:27.152Z,100516.34
2023-05-14T10:24:30.521Z,100523.38
2023-05-14T10:25:32.527Z,100517.41
2023-05-14T10:26:38.445Z,100515.00
2023-05-14T10:27:42.378Z,100520.47
2023-05-14T10:28:45.061Z,100519.97
2023-05-14T10:29:53.845Z,100510.44
2023-05-14T10:30:56.445Z,100509.72
2023-05-14T10:31:58.002Z,100519.50
2023-05-14T10:33:08.284Z,100515.50
2023-05-14T10:34:32.342Z,100517.19
2023-05-14T10:35:52.310Z,100517.59
2023-05-14T10:36:53.850Z,100518.84
2023-05-14T10:37:57.721Z,100513.88
2023-05-14T10:39:04.322Z,100506.94
2023-05-14T10:40:08.296Z,100503.84
2023-05-14T10:41:12.702Z,100502.69
2023-05-14T10:42:18.061Z,100495.09
2023-05-14T10:43:23.399Z,100500.50
2023-05-14T10:44:24.886Z,100497.25
2023-05-14T10:45:28.083Z,100492.31
2023-05-14T10:46:29.794Z,100486.09
2023-05-14T10:47:33.150Z,100484.50
2023-05-14T10:48:36.579Z,100499.84
2023-05-14T10:49:43.251Z,100484.00
2023-05-14T10:50:48.986Z,100487.81
2023-05-14T10:51:52.909Z,100487.13
2023-05-14T10:52:57.041Z,100491.94
2023-05-14T10:54:01.044Z,100489.75
2023-05-14T10:55:07.601Z,100473.91
2023-05-14T10:56:10.325Z,100482.56
2023-05-14T10:57:15.459Z,100479.91
2023-05-14T10:58:18.999Z,100471.59
2023-05-14T10:59:27.059Z,100483.53
2023-05-14T11:00:29.589Z,100489.88
2023-05-14T11:01:31.957Z,100485.78
2023-05-14T11:02:36.781Z,100489.81
2023-05-14T11:03:42.679Z,100484.44
2023-05-14T11:04:53.657Z,100488.00
2023-05-14T11:05:56.624Z,100480.66
2023-05-14T11:06:58.856Z,100485.50
2023-05-14T11:08:05.484Z,100480.72
2023-05-14T11:09:07.226Z,100476.59
2023-05-14T11:10:11.192Z,100476.66
2023-05-14T11:11:13.646Z,100471.94
2023-05-14T11:12:15.234Z,100474.53
2023-05-14T11:13:18.647Z,100469.34
2023-05-14T11:14:20.262Z,100483.22
2023-05-14T11:15:26.014Z,100481.09
2023-05-14T11:16:30.711Z,100472.81
2023-05-14T11:17:33.695Z,100479.00
2023-05-14T11:18:38.460Z,100474.59
2023-05-14T11:19:43.383Z,100463.25
2023-05-14T11:20:45.878Z,100470.53
2023-05-14T11:21:47.417Z,100477.22
2023-05-14T11:22:51.490Z,100476.66
2023-05-14T11:23:54.666Z,100465.75
2023-05-14T11:24:57.443Z,100474.41
2023-05-14T11:25:59.014Z,100471.88
2023-05-14T11:27:01.477Z,100471.31
2023-05-14T11:28:04.005Z,100466.56
2023-05-14T11:29:05.524Z,100468.16
2023-05-14T11:30:14.194Z,100464.81
2023-05-14T11:31:17.186Z,100471.63
2023-05-14T11:32:20.863Z,100462.59
2023-05-14T11:33:22.441Z,100461.53
2023-05-14T11:35:26.484Z,100475.03
2023-05-14T11:36:28.902Z,100474.41
2023-05-14T11:37:30.673Z,100472.69
2023-05-14T11:38:33.189Z,100466.53
2023-05-14T11:39:36.023Z,100464.63
2023-05-14T11:40:38.459Z,100477.16
2023-05-14T11:41:44.123Z,100473.56
2023-05-14T11:42:46.733Z,100464.91
2023-05-14T11:43:48.692Z,100462.63
2023-05-14T11:44:54.093Z,100463.66
2023-05-14T11:45:57.061Z,100473.38
2023-05-14T11:47:01.445Z,100464.94
2023-05-14T11:48:04.071Z,100467.84
2023-05-14T11:49:06.601Z,100461.97
2023-05-14T11:50:09.982Z,100459.41
2023-05-14T11:51:11.538Z,100460.19
2023-05-14T11:52:15.322Z,100461.03
2023-05-14T11:53:18.573Z,100445.84
2023-05-14T11:54:20.956Z,100458.56
2023-05-14T11:55:23.416Z,100461.16
2023-05-14T11:56:24.874Z,100452.38
2023-05-14T11:57:27.313Z,100451.94
2023-05-14T11:58:32.380Z,100458.22
2023-05-14T11:59:35.050Z,100440.03
2023-05-14T12:00:38.817Z,100447.13